Cheyenne — 9HAK5 — position and weather

sailwx.info

Track history (hours):
 
Tides and Currents Weather Stations Pressure Air Temp Water Temp Dewpoint Dewpoint Depression Visibility Wind Speed Wind Dir Waves Ship Positions

Cheyenne

Last reported at 2017-Oct-15 05:25 UTC. Time now 2017-Oct-19 02:21 UTC.
Position N 45°31' E 036°47'.

Length 133 m; draft 3 m.

Type: Ship. MMSI: 249607000.

Date/timePositionNaut miles runAvg speedWind from/ knotsBaromVisibWave heightAir tempDewpointWater temp
2017-Oct-15 05:25N 45°31' E 036°47'3 7.5
2017-Oct-15 05:00N 45°29' E 036°43'4 7.2
2017-Oct-15 04:30N 45°26' E 036°42'4 7.1
2017-Oct-15 04:00N 45°23' E 036°40'3 6.1
2017-Oct-15 03:30N 45°20' E 036°38'4 7.4
2017-Oct-15 03:00N 45°19' E 036°33'3 6.3
2017-Oct-15 02:30N 45°17' E 036°29'2 3.7
2017-Oct-15 02:00N 45°15' E 036°29'2 4.0
2017-Oct-15 01:30N 45°13' E 036°31'1 0.9
2017-Oct-15 00:56N 45°13' E 036°31'0 0.0
2017-Oct-15 00:29N 45°13' E 036°31'0 0.0
2017-Oct-14 23:59N 45°13' E 036°31'0 0.0
2017-Oct-14 23:26N 45°13' E 036°31'0 0.0
2017-Oct-14 22:59N 45°13' E 036°31'0 0.1
2017-Oct-14 22:29N 45°13' E 036°31'0 0.0
2017-Oct-14 21:59N 45°13' E 036°31'0 0.0
2017-Oct-14 21:23N 45°13' E 036°31'0 0.0
2017-Oct-14 20:59N 45°13' E 036°31'0 0.0
2017-Oct-14 20:29N 45°13' E 036°31'0 0.0
2017-Oct-14 19:50N 45°13' E 036°31'0 0.0
2017-Oct-14 19:26N 45°13' E 036°31'0 0.0
2017-Oct-14 18:56N 45°13' E 036°31'0 0.0
2017-Oct-14 18:26N 45°13' E 036°31'0 0.0
2017-Oct-14 17:56N 45°13' E 036°31'0 0.0
2017-Oct-14 17:29N 45°13' E 036°31'0 0.0
2017-Oct-14 16:56N 45°13' E 036°31'0 0.0
2017-Oct-14 16:08N 45°13' E 036°31'0 0.0
2017-Oct-14 15:56N 45°13' E 036°31'0 0.0
2017-Oct-14 15:29N 45°13' E 036°31'0 0.0
2017-Oct-14 14:44N 45°13' E 036°31'0 0.1
2017-Oct-14 14:29N 45°13' E 036°31'0 0.0
2017-Oct-14 13:59N 45°13' E 036°31'0 0.0
2017-Oct-14 13:29N 45°13' E 036°31'0 0.0
2017-Oct-14 12:59N 45°13' E 036°31'0 0.0
2017-Oct-14 12:26N 45°13' E 036°31'0 0.0
2017-Oct-14 11:56N 45°13' E 036°31'0 0.0
2017-Oct-14 11:17N 45°13' E 036°31'0 0.1
2017-Oct-14 10:59N 45°13' E 036°31'0 0.1
2017-Oct-14 10:29N 45°13' E 036°31'0 0.0
2017-Oct-14 09:56N 45°13' E 036°31'0 0.1
2017-Oct-14 09:29N 45°13' E 036°31'0 0.0
2017-Oct-14 08:56N 45°13' E 036°31'0 0.0
2017-Oct-14 08:26N 45°13' E 036°31'0 0.0
2017-Oct-14 07:53N 45°13' E 036°31'0 0.0
2017-Oct-14 07:29N 45°13' E 036°31'0 0.2
2017-Oct-14 07:00N 45°13' E 036°31'3 6.5
2017-Oct-14 06:29N 45°10' E 036°28'  
2017-Oct-11 16:45N 40°59' E 028°60'  
Track history (hours):
 
Tides and Currents Weather Stations Pressure Air Temp Water Temp Dewpoint Dewpoint Depression Visibility Wind Speed Wind Dir Waves Ship Positions

Cheyenne

Last reported at 2017-Oct-15 05:25 UTC. Time now 2017-Oct-19 02:21 UTC.
Position N 45°31' E 036°47'.

Length 133 m; draft 3 m.

Type: Ship. MMSI: 249607000.

Date/timePositionNaut miles runAvg speedWind from/ knotsBaromVisibWave heightAir tempDewpointWater temp
2017-Oct-15 05:25N 45°31' E 036°47'3 7.5
2017-Oct-15 05:00N 45°29' E 036°43'4 7.2
2017-Oct-15 04:30N 45°26' E 036°42'4 7.1
2017-Oct-15 04:00N 45°23' E 036°40'3 6.1
2017-Oct-15 03:30N 45°20' E 036°38'4 7.4
2017-Oct-15 03:00N 45°19' E 036°33'3 6.3
2017-Oct-15 02:30N 45°17' E 036°29'2 3.7
2017-Oct-15 02:00N 45°15' E 036°29'2 4.0
2017-Oct-15 01:30N 45°13' E 036°31'1 0.9
2017-Oct-15 00:56N 45°13' E 036°31'0 0.0
2017-Oct-15 00:29N 45°13' E 036°31'0 0.0
2017-Oct-14 23:59N 45°13' E 036°31'0 0.0
2017-Oct-14 23:26N 45°13' E 036°31'0 0.0
2017-Oct-14 22:59N 45°13' E 036°31'0 0.1
2017-Oct-14 22:29N 45°13' E 036°31'0 0.0
2017-Oct-14 21:59N 45°13' E 036°31'0 0.0
2017-Oct-14 21:23N 45°13' E 036°31'0 0.0
2017-Oct-14 20:59N 45°13' E 036°31'0 0.0
2017-Oct-14 20:29N 45°13' E 036°31'0 0.0
2017-Oct-14 19:50N 45°13' E 036°31'0 0.0
2017-Oct-14 19:26N 45°13' E 036°31'0 0.0
2017-Oct-14 18:56N 45°13' E 036°31'0 0.0
2017-Oct-14 18:26N 45°13' E 036°31'0 0.0
2017-Oct-14 17:56N 45°13' E 036°31'0 0.0
2017-Oct-14 17:29N 45°13' E 036°31'0 0.0
2017-Oct-14 16:56N 45°13' E 036°31'0 0.0
2017-Oct-14 16:08N 45°13' E 036°31'0 0.0
2017-Oct-14 15:56N 45°13' E 036°31'0 0.0
2017-Oct-14 15:29N 45°13' E 036°31'0 0.0
2017-Oct-14 14:44N 45°13' E 036°31'0 0.1
2017-Oct-14 14:29N 45°13' E 036°31'0 0.0
2017-Oct-14 13:59N 45°13' E 036°31'0 0.0
2017-Oct-14 13:29N 45°13' E 036°31'0 0.0
2017-Oct-14 12:59N 45°13' E 036°31'0 0.0
2017-Oct-14 12:26N 45°13' E 036°31'0 0.0
2017-Oct-14 11:56N 45°13' E 036°31'0 0.0
2017-Oct-14 11:17N 45°13' E 036°31'0 0.1
2017-Oct-14 10:59N 45°13' E 036°31'0 0.1
2017-Oct-14 10:29N 45°13' E 036°31'0 0.0
2017-Oct-14 09:56N 45°13' E 036°31'0 0.1
2017-Oct-14 09:29N 45°13' E 036°31'0 0.0
2017-Oct-14 08:56N 45°13' E 036°31'0 0.0
2017-Oct-14 08:26N 45°13' E 036°31'0 0.0
2017-Oct-14 07:53N 45°13' E 036°31'0 0.0
2017-Oct-14 07:29N 45°13' E 036°31'0 0.2
2017-Oct-14 07:00N 45°13' E 036°31'3 6.5
2017-Oct-14 06:29N 45°10' E 036°28'  
2017-Oct-11 16:45N 40°59' E 028°60'  

Dump ship's entire track history